Time;durP1;ratioP1;P1;durP2;ratioP2;P2;SDS_P1;SDS_P2;PMS_P1;PMS_P2;Temp;Humidity;BMP_temperature;BMP_pressure;BME280_temperature;BME280_humidity;BME280_pressure;Samples;Min_cycle;Max_cycle;Signal;HPM_P1;HPM_P2
2022/07/29 00:00:01;;;;;;;4.37;1.60;;;;;;;18.75;66.76;100704.91;687450;28;1048;-44
2022/07/29 00:00:21;;;;;;;4.95;1.67;;;;;;;18.75;67.35;100701.38;685637;28;1903;-43
2022/07/29 00:00:45;;;;;;;4.78;1.67;;;;;;;18.73;66.88;100717.34;688787;28;1432;-44
2022/07/29 00:01:05;;;;;;;4.13;1.60;;;;;;;18.72;66.98;100711.19;686599;28;4711;-43
2022/07/29 00:01:26;;;;;;;4.47;1.70;;;;;;;18.71;68.19;100709.44;685259;28;1215;-43
2022/07/29 00:01:46;;;;;;;4.50;1.87;;;;;;;18.71;67.57;100712.09;686082;28;1324;-43
2022/07/29 00:02:06;;;;;;;5.55;1.95;;;;;;;18.70;66.99;100710.38;687890;28;1229;-46
2022/07/29 00:02:28;;;;;;;5.03;2.00;;;;;;;18.71;67.28;100716.53;687177;28;1376;-44
2022/07/29 00:02:48;;;;;;;4.68;1.70;;;;;;;18.71;66.79;100711.25;686637;28;1484;-44
2022/07/29 00:03:08;;;;;;;4.00;1.60;;;;;;;18.71;66.85;100714.75;688761;28;915;-44
2022/07/29 00:03:29;;;;;;;4.30;1.70;;;;;;;18.71;67.41;100717.41;686788;28;1293;-44
2022/07/29 00:03:49;;;;;;;4.80;1.70;;;;;;;18.70;67.12;100714.81;689564;28;1388;-44
2022/07/29 00:04:10;;;;;;;4.25;1.63;;;;;;;18.69;66.34;100715.72;689683;28;4383;-43
2022/07/29 00:04:30;;;;;;;4.93;1.67;;;;;;;18.69;66.25;100713.06;688573;28;1300;-43
2022/07/29 00:04:51;;;;;;;4.80;1.60;;;;;;;18.69;65.68;100721.91;684976;28;1128;-44
2022/07/29 00:05:13;;;;;;;4.37;1.70;;;;;;;18.67;65.46;100718.44;684271;28;1103;-44
2022/07/29 00:05:33;;;;;;;4.68;1.80;;;;;;;18.68;65.47;100712.22;683453;28;1466;-43
2022/07/29 00:05:54;;;;;;;4.47;1.70;;;;;;;18.69;65.43;100713.06;684166;28;1323;-45
2022/07/29 00:06:15;;;;;;;3.75;1.70;;;;;;;18.69;65.42;100715.72;683267;28;1096;-43
2022/07/29 00:06:35;;;;;;;4.32;1.70;;;;;;;18.68;65.51;100721.97;683452;28;1174;-44
2022/07/29 00:06:56;;;;;;;4.57;1.60;;;;;;;18.69;65.51;100716.59;683559;28;1343;-44
2022/07/29 00:07:16;;;;;;;4.65;1.70;;;;;;;18.71;65.45;100714.75;683244;28;4439;-44
2022/07/29 00:07:36;;;;;;;6.10;1.80;;;;;;;18.72;64.81;100712.97;681735;28;1256;-43
2022/07/29 00:07:57;;;;;;;4.70;1.70;;;;;;;18.71;66.22;100716.53;681651;28;1224;-43
2022/07/29 00:08:17;;;;;;;5.77;2.00;;;;;;;18.71;66.27;100716.53;684846;28;1202;-44
2022/07/29 00:08:38;;;;;;;5.20;1.90;;;;;;;18.71;65.77;100717.41;685674;28;1337;-42
2022/07/29 00:08:58;;;;;;;5.30;2.25;;;;;;;18.71;65.41;100714.75;682095;28;1865;-44
2022/07/29 00:09:18;;;;;;;4.27;1.70;;;;;;;18.70;65.65;100707.72;680808;28;1210;-43
2022/07/29 00:09:39;;;;;;;7.88;2.03;;;;;;;18.71;65.57;100717.41;682877;28;1310;-44
2022/07/29 00:09:59;;;;;;;7.60;1.93;;;;;;;18.70;65.61;100710.38;682519;28;4782;-43
2022/07/29 00:10:20;;;;;;;4.63;1.80;;;;;;;18.71;65.38;100712.09;684253;28;1206;-43
2022/07/29 00:10:41;;;;;;;5.68;1.83;;;;;;;18.71;65.27;100714.75;683057;28;1457;-45
2022/07/29 00:11:01;;;;;;;5.95;1.85;;;;;;;18.73;65.46;100714.69;686500;28;1313;-43
2022/07/29 00:11:21;;;;;;;5.13;1.80;;;;;;;18.74;65.89;100710.28;685622;28;1124;-43
2022/07/29 00:11:42;;;;;;;5.17;1.87;;;;;;;18.75;65.93;100718.16;687292;28;1253;-43
2022/07/29 00:12:02;;;;;;;5.50;1.90;;;;;;;18.75;66.36;100710.22;687283;28;1047;-43
2022/07/29 00:12:24;;;;;;;5.05;1.75;;;;;;;18.75;66.58;100711.97;686257;28;1540;-43
2022/07/29 00:12:45;;;;;;;5.03;1.90;;;;;;;18.75;66.53;100706.69;686828;28;1548;-42
2022/07/29 00:13:05;;;;;;;4.00;1.70;;;;;;;18.74;66.22;100704.97;685750;28;4367;-43
2022/07/29 00:13:25;;;;;;;6.10;1.90;;;;;;;18.72;66.31;100713.84;689101;28;1199;-44
2022/07/29 00:13:46;;;;;;;5.97;1.80;;;;;;;18.72;65.81;100710.34;688939;28;1701;-44
2022/07/29 00:14:06;;;;;;;8.07;1.92;;;;;;;18.72;65.52;100708.53;688117;28;1385;-44
2022/07/29 00:14:28;;;;;;;9.07;1.90;;;;;;;18.71;65.89;100705.94;688415;28;1463;-43
2022/07/29 00:14:48;;;;;;;4.80;1.70;;;;;;;18.70;65.75;100706.88;688261;28;2072;-43
2022/07/29 00:15:08;;;;;;;4.13;1.80;;;;;;;18.68;65.60;100712.22;689955;28;1424;-43
2022/07/29 00:15:29;;;;;;;3.43;1.70;;;;;;;18.68;66.24;100706.06;687109;28;1862;-44
2022/07/29 00:15:49;;;;;;;3.40;1.55;;;;;;;18.67;66.21;100713.13;686728;28;1550;-45
2022/07/29 00:16:09;;;;;;;4.63;1.80;;;;;;;18.66;67.07;100703.50;684644;28;4505;-43
2022/07/29 00:16:30;;;;;;;6.27;2.20;;;;;;;18.66;66.50;100708.78;686053;28;4226;-43
2022/07/29 00:16:50;;;;;;;5.57;1.80;;;;;;;18.67;67.01;100705.19;685699;28;1425;-43
2022/07/29 00:17:11;;;;;;;3.83;1.70;;;;;;;18.67;66.56;100710.50;686126;28;1083;-43
2022/07/29 00:17:31;;;;;;;5.20;1.70;;;;;;;18.66;66.84;100711.44;688558;28;1728;-43
2022/07/29 00:17:51;;;;;;;5.73;1.80;;;;;;;18.64;66.56;100710.59;689152;28;1230;-43
2022/07/29 00:18:14;;;;;;;6.07;1.83;;;;;;;18.64;66.50;100715.91;688432;28;1642;-43
2022/07/29 00:18:35;;;;;;;4.93;1.60;;;;;;;18.63;66.91;100714.16;688219;28;1136;-43
2022/07/29 00:18:55;;;;;;;4.32;1.60;;;;;;;18.63;67.29;100708.88;688188;28;1560;-43
2022/07/29 00:19:15;;;;;;;3.80;1.70;;;;;;;18.63;67.44;100706.22;686945;28;4542;-44
2022/07/29 00:19:36;;;;;;;4.07;1.90;;;;;;;18.62;66.52;100704.53;689392;28;1299;-44
2022/07/29 00:19:56;;;;;;;4.30;2.13;;;;;;;18.63;66.03;100702.72;686158;28;1566;-44
2022/07/29 00:20:17;;;;;;;5.35;2.00;;;;;;;18.61;66.11;100696.63;686692;28;1354;-44
2022/07/29 00:20:37;;;;;;;5.80;1.87;;;;;;;18.60;66.11;100709.00;684807;28;1920;-43
2022/07/29 00:20:58;;;;;;;4.82;1.70;;;;;;;18.58;66.17;100702.03;684598;28;1219;-44
2022/07/29 00:21:18;;;;;;;4.87;1.70;;;;;;;18.59;66.13;100701.97;679867;28;1245;-44
2022/07/29 00:21:39;;;;;;;3.60;1.60;;;;;;;18.58;66.31;100696.75;680451;28;1586;-44
2022/07/29 00:22:00;;;;;;;4.33;1.80;;;;;;;18.58;66.41;100694.09;682450;28;4394;-43
2022/07/29 00:22:21;;;;;;;4.43;1.70;;;;;;;18.60;66.34;100698.41;683282;28;1582;-43
2022/07/29 00:22:41;;;;;;;5.07;1.77;;;;;;;18.60;66.59;100700.22;684408;28;1153;-44
2022/07/29 00:23:02;;;;;;;3.05;1.60;;;;;;;18.60;66.35;100700.22;684784;28;1896;-45
2022/07/29 00:23:23;;;;;;;3.55;1.60;;;;;;;18.58;66.37;100694.09;684312;28;1161;-43
2022/07/29 00:23:43;;;;;;;4.60;1.70;;;;;;;18.55;66.55;100695.06;683702;28;1437;-43
2022/07/29 00:24:03;;;;;;;4.60;1.85;;;;;;;18.55;66.61;100703.00;683942;28;1247;-43
2022/07/29 00:24:24;;;;;;;5.33;1.80;;;;;;;18.53;66.48;100702.22;685480;28;1333;-43
2022/07/29 00:24:44;;;;;;;6.17;1.80;;;;;;;18.53;66.48;100697.78;683536;28;953;-43
2022/07/29 00:25:05;;;;;;;6.40;1.90;;;;;;;18.52;66.79;100697.84;685495;28;4585;-44
2022/07/29 00:25:26;;;;;;;4.40;1.70;;;;;;;18.52;66.92;100697.84;690745;28;1432;-44
2022/07/29 00:25:46;;;;;;;3.13;1.52;;;;;;;18.53;67.55;100702.22;688490;28;1363;-44
2022/07/29 00:26:07;;;;;;;3.43;1.70;;;;;;;18.51;66.92;100696.09;688647;28;1788;-46
2022/07/29 00:26:31;;;;;;;4.87;1.83;;;;;;;18.52;66.76;100689.91;688322;28;1407;-43
2022/07/29 00:26:51;;;;;;;5.82;1.75;;;;;;;18.51;66.65;100694.34;689141;28;1637;-43
2022/07/29 00:27:12;;;;;;;4.67;1.83;;;;;;;18.52;66.93;100689.91;687065;28;1251;-43
2022/07/29 00:27:32;;;;;;;5.00;2.00;;;;;;;18.53;66.82;100692.47;686850;28;1367;-43
2022/07/29 00:27:53;;;;;;;5.30;1.80;;;;;;;18.54;66.73;100703.94;689213;28;1394;-43
2022/07/29 00:28:13;;;;;;;6.07;1.80;;;;;;;18.53;67.41;100688.97;688700;28;4338;-44
2022/07/29 00:28:33;;;;;;;5.07;2.03;;;;;;;18.53;66.88;100686.34;689158;28;1258;-44
2022/07/29 00:28:54;;;;;;;5.83;1.90;;;;;;;18.52;66.56;100685.44;688021;28;1371;-45
2022/07/29 00:29:14;;;;;;;5.82;1.75;;;;;;;18.53;66.66;100691.63;689015;28;1295;-43
2022/07/29 00:29:34;;;;;;;6.47;1.63;;;;;;;18.52;66.88;100687.25;688457;28;1088;-43
2022/07/29 00:29:55;;;;;;;5.63;1.80;;;;;;;18.58;66.46;100683.50;689240;28;1591;-45
2022/07/29 00:30:15;;;;;;;4.73;1.70;;;;;;;18.58;66.37;100689.69;689491;28;1374;-43
2022/07/29 00:30:35;;;;;;;5.40;1.87;;;;;;;18.59;66.63;100686.09;689192;28;1240;-43
2022/07/29 00:30:56;;;;;;;4.93;1.90;;;;;;;18.58;66.69;100689.69;689862;28;1052;-43
2022/07/29 00:31:16;;;;;;;5.17;2.00;;;;;;;18.57;66.73;100682.66;688073;28;4271;-44
2022/07/29 00:31:36;;;;;;;4.57;1.80;;;;;;;18.57;65.98;100687.06;688288;28;1220;-44
2022/07/29 00:31:57;;;;;;;5.18;1.65;;;;;;;18.57;66.39;100684.41;688275;28;1571;-44
2022/07/29 00:32:17;;;;;;;5.55;1.88;;;;;;;18.55;66.16;100684.47;689327;28;1412;-44
2022/07/29 00:32:38;;;;;;;5.37;1.80;;;;;;;18.54;66.17;100675.69;687994;28;1646;-43
2022/07/29 00:32:59;;;;;;;6.15;1.92;;;;;;;18.55;66.00;100684.47;689751;28;1014;-43
2022/07/29 00:33:19;;;;;;;4.77;1.80;;;;;;;18.54;66.24;100686.28;688702;28;1255;-43
2022/07/29 00:33:39;;;;;;;5.38;1.77;;;;;;;18.54;66.21;100680.13;688396;28;1225;-46
2022/07/29 00:34:00;;;;;;;5.50;1.73;;;;;;;18.54;66.55;100683.63;689526;28;4534;-43
2022/07/29 00:35:44;;;;;;;4.53;1.75;;;;;;;18.53;66.23;100673.09;689084;28;1054;-43
2022/07/29 00:36:05;;;;;;;4.25;1.70;;;;;;;18.54;66.03;100672.19;688640;28;1894;-44
2022/07/29 00:36:25;;;;;;;5.17;1.70;;;;;;;18.53;66.19;100671.31;688111;28;1654;-44
2022/07/29 00:36:45;;;;;;;5.00;1.88;;;;;;;18.55;66.21;100676.53;689078;28;1701;-42
2022/07/29 00:37:06;;;;;;;4.30;2.00;;;;;;;18.55;66.99;100680.06;688107;28;4521;-43
2022/07/29 00:37:26;;;;;;;5.22;1.85;;;;;;;18.53;67.57;100673.09;689193;28;1494;-44
2022/07/29 00:37:46;;;;;;;4.23;1.63;;;;;;;18.53;68.42;100678.38;687997;28;1666;-43
2022/07/29 00:38:07;;;;;;;4.57;1.80;;;;;;;18.51;68.59;100674.91;689404;28;1237;-43
2022/07/29 00:38:27;;;;;;;3.95;1.60;;;;;;;18.51;68.66;100678.44;688816;28;1284;-43
2022/07/29 00:38:49;;;;;;;3.90;1.60;;;;;;;18.50;68.93;100679.38;688931;28;4991;-43
2022/07/29 00:39:09;;;;;;;3.97;1.75;;;;;;;18.50;68.68;100678.50;688744;28;1074;-45
2022/07/29 00:39:30;;;;;;;3.87;1.87;;;;;;;18.49;68.46;100676.78;690201;28;1116;-44
2022/07/29 00:39:50;;;;;;;5.55;1.77;;;;;;;18.46;67.68;100675.09;686706;28;1200;-43
2022/07/29 00:40:11;;;;;;;5.10;1.90;;;;;;;18.46;67.76;100671.59;688062;28;4508;-43
2022/07/29 00:40:31;;;;;;;5.22;1.80;;;;;;;18.46;67.25;100674.25;688318;28;1926;-45
2022/07/29 00:40:52;;;;;;;6.43;1.80;;;;;;;18.47;67.25;100671.53;691534;28;1357;-43
2022/07/29 00:41:12;;;;;;;3.70;1.63;;;;;;;18.46;67.12;100669.81;690165;28;1252;-45
2022/07/29 00:41:33;;;;;;;4.38;1.80;;;;;;;18.46;67.21;100676.91;689770;28;1590;-44
2022/07/29 00:41:53;;;;;;;4.97;1.60;;;;;;;18.45;67.18;100672.53;689548;28;1399;-43
2022/07/29 00:42:13;;;;;;;5.80;1.80;;;;;;;18.44;67.21;100671.66;689592;28;1726;-44
2022/07/29 00:42:50;;;;;;;5.00;1.73;;;;;;;18.42;67.38;100670.84;688843;28;1295;-43
2022/07/29 00:43:11;;;;;;;3.58;1.70;;;;;;;18.42;67.34;100670.84;683731;28;4506;-43
2022/07/29 00:43:32;;;;;;;4.90;1.83;;;;;;;18.42;67.67;100678.78;688691;28;1499;-45
2022/07/29 00:43:52;;;;;;;6.43;1.90;;;;;;;18.41;68.27;100677.06;688150;28;1439;-43
2022/07/29 00:44:12;;;;;;;4.70;1.80;;;;;;;18.38;67.95;100678.03;688410;28;1548;-44
2022/07/29 00:44:40;;;;;;;4.07;1.63;;;;;;;18.40;68.70;100679.75;689952;28;1423;-45
2022/07/29 00:45:01;;;;;;;4.38;1.50;;;;;;;18.37;69.04;100671.03;688604;28;1424;-44
2022/07/29 00:45:21;;;;;;;3.83;1.70;;;;;;;18.36;67.90;100679.03;689174;28;1177;-43
2022/07/29 00:45:42;;;;;;;3.92;1.73;;;;;;;18.35;67.64;100672.84;688097;28;1245;-43
2022/07/29 00:46:03;;;;;;;4.45;1.70;;;;;;;18.35;67.41;100677.28;688225;28;4542;-43
2022/07/29 00:46:23;;;;;;;4.37;1.70;;;;;;;18.35;67.64;100667.56;688259;28;1802;-43
2022/07/29 00:46:43;;;;;;;4.78;1.80;;;;;;;18.35;67.95;100674.66;689084;28;1065;-43
2022/07/29 00:47:04;;;;;;;3.33;1.63;;;;;;;18.34;68.14;100665.81;688060;28;1621;-44
2022/07/29 00:47:24;;;;;;;3.85;1.52;;;;;;;18.33;67.89;100666.78;688972;28;1327;-43
2022/07/29 00:47:45;;;;;;;4.70;1.80;;;;;;;18.33;67.96;100666.78;689930;28;1032;-43
2022/07/29 00:48:06;;;;;;;3.88;1.67;;;;;;;18.32;68.32;100666.81;687739;28;1197;-44
2022/07/29 00:48:27;;;;;;;4.22;1.77;;;;;;;18.31;68.22;100665.94;688405;28;1394;-44
2022/07/29 00:48:47;;;;;;;4.40;1.90;;;;;;;18.32;68.55;100669.47;689300;28;1608;-43
2022/07/29 00:49:08;;;;;;;5.55;1.95;;;;;;;18.30;68.89;100663.38;687614;28;4467;-44
2022/07/29 00:49:28;;;;;;;4.68;1.90;;;;;;;18.33;70.26;100665.88;690874;28;1964;-44
2022/07/29 00:49:49;;;;;;;5.33;1.90;;;;;;;18.34;68.25;100657.88;691518;28;1295;-43
2022/07/29 00:50:11;;;;;;;7.20;1.95;;;;;;;18.34;68.34;100655.25;688275;28;1958;-46
2022/07/29 00:50:32;;;;;;;5.85;1.75;;;;;;;18.35;67.77;100667.56;689593;28;1421;-43
2022/07/29 00:50:53;;;;;;;5.30;1.77;;;;;;;18.36;68.32;100661.34;689591;28;1511;-43
2022/07/29 00:51:14;;;;;;;6.43;1.80;;;;;;;18.35;68.93;100656.97;688481;28;1755;-43
2022/07/29 00:51:36;;;;;;;4.95;1.70;;;;;;;18.35;68.74;100654.31;690979;28;1261;-43
2022/07/29 00:51:57;;;;;;;4.30;1.50;;;;;;;18.36;69.28;100650.78;690708;28;1696;-43
2022/07/29 00:52:17;;;;;;;4.13;1.80;;;;;;;18.36;68.53;100655.22;691760;28;4385;-44
2022/07/29 00:52:40;;;;;;;3.95;1.77;;;;;;;18.37;68.60;100654.25;691082;28;1298;-43
2022/07/29 00:53:00;;;;;;;4.10;1.60;;;;;;;18.35;68.58;100658.78;691685;28;1963;-43
2022/07/29 00:53:21;;;;;;;4.65;1.73;;;;;;;18.35;68.13;100651.69;691924;28;1224;-43
2022/07/29 00:53:41;;;;;;;3.83;1.63;;;;;;;18.35;68.24;100653.47;691177;28;1533;-44
2022/07/29 00:54:02;;;;;;;4.13;1.60;;;;;;;18.37;68.65;100651.63;690940;28;1752;-43
2022/07/29 00:54:23;;;;;;;5.78;1.80;;;;;;;18.39;67.42;100655.09;691359;28;1603;-45
2022/07/29 00:54:43;;;;;;;6.03;1.73;;;;;;;18.37;67.25;100652.50;691363;28;1765;-45
2022/07/29 00:55:06;;;;;;;5.60;1.70;;;;;;;18.36;68.16;100653.41;688231;28;4298;-44
2022/07/29 00:55:28;;;;;;;4.68;1.70;;;;;;;18.36;67.63;100649.91;688233;28;1684;-44
2022/07/29 00:55:49;;;;;;;5.00;1.77;;;;;;;18.34;68.62;100655.25;688299;28;1650;-44
2022/07/29 00:56:09;;;;;;;4.90;1.90;;;;;;;18.33;68.69;100652.66;688230;28;1622;-44
2022/07/29 00:56:31;;;;;;;4.18;1.60;;;;;;;18.32;68.96;100651.81;685296;28;1389;-44
2022/07/29 00:56:51;;;;;;;5.45;1.67;;;;;;;18.32;68.61;100653.59;686175;28;1703;-44
2022/07/29 00:57:12;;;;;;;6.27;1.80;;;;;;;18.32;67.98;100653.59;685443;28;1577;-45
2022/07/29 00:57:33;;;;;;;4.88;1.63;;;;;;;18.31;68.29;100654.50;685724;28;1763;-44
2022/07/29 00:57:54;;;;;;;4.22;1.73;;;;;;;18.30;67.86;100658.91;687409;28;1060;-43
2022/07/29 00:58:15;;;;;;;4.68;1.77;;;;;;;18.28;67.87;100660.78;689046;28;4352;-43
2022/07/29 00:58:35;;;;;;;5.90;1.90;;;;;;;18.28;68.34;100649.34;688622;28;1647;-43
2022/07/29 00:58:56;;;;;;;4.10;1.90;;;;;;;18.28;68.56;100655.47;688559;28;1754;-44
2022/07/29 00:59:17;;;;;;;4.38;1.70;;;;;;;18.29;69.04;100657.22;688469;28;1890;-43
2022/07/29 00:59:37;;;;;;;4.95;1.67;;;;;;;18.27;69.57;100656.41;685198;28;1540;-44
2022/07/29 00:59:57;;;;;;;5.40;1.73;;;;;;;18.27;68.91;100656.41;686544;28;1411;-43
2022/07/29 01:00:21;;;;;;;4.17;1.80;;;;;;;18.26;68.74;100662.59;686029;28;1494;-43
2022/07/29 01:00:42;;;;;;;4.18;1.70;;;;;;;18.26;68.95;100657.31;685284;28;1238;-43
2022/07/29 01:01:02;;;;;;;4.05;1.80;;;;;;;18.25;68.50;100654.72;680344;28;4494;-43
2022/07/29 01:01:23;;;;;;;3.97;1.70;;;;;;;18.24;68.45;100655.66;684334;28;1090;-43
2022/07/29 01:01:43;;;;;;;4.10;1.70;;;;;;;18.23;68.81;100654.78;686128;28;1123;-44
2022/07/29 01:02:04;;;;;;;4.50;1.80;;;;;;;18.24;68.62;100658.31;686978;28;1405;-43
2022/07/29 01:02:24;;;;;;;4.80;1.70;;;;;;;18.23;68.33;100652.13;686184;28;1534;-43
2022/07/29 01:02:48;;;;;;;4.73;1.70;;;;;;;18.24;68.35;100653.03;686392;28;1394;-43
2022/07/29 01:03:08;;;;;;;5.28;1.65;;;;;;;18.24;68.57;100648.56;686886;28;1421;-43
2022/07/29 01:03:28;;;;;;;4.37;1.60;;;;;;;18.26;68.54;100654.66;687776;28;1239;-43
2022/07/29 01:03:49;;;;;;;4.65;1.60;;;;;;;18.26;68.52;100652.00;687482;28;1307;-43
2022/07/29 01:04:09;;;;;;;5.10;1.70;;;;;;;18.26;68.56;100652.00;688106;28;4393;-43
2022/07/29 01:04:31;;;;;;;5.83;2.00;;;;;;;18.26;68.64;100651.16;688517;28;1221;-43
2022/07/29 01:04:51;;;;;;;4.43;2.05;;;;;;;18.28;68.18;100649.34;687801;28;1569;-44
2022/07/29 01:05:12;;;;;;;4.13;1.92;;;;;;;18.31;68.17;100650.06;688674;28;1119;-44
2022/07/29 01:05:34;;;;;;;5.25;1.90;;;;;;;18.29;68.56;100654.56;688305;28;1166;-43
2022/07/29 01:05:55;;;;;;;4.00;1.75;;;;;;;18.28;69.00;100651.97;688901;28;1298;-43
2022/07/29 01:06:17;;;;;;;5.23;1.90;;;;;;;18.26;68.07;100651.16;688004;28;1103;-43
2022/07/29 01:06:38;;;;;;;4.85;1.73;;;;;;;18.27;67.91;100655.53;688197;28;1167;-43
2022/07/29 01:07:01;;;;;;;3.97;1.70;;;;;;;18.24;68.63;100656.50;687212;28;4374;-44
2022/07/29 01:07:22;;;;;;;4.13;1.80;;;;;;;18.23;68.49;100652.13;685997;28;1175;-43
2022/07/29 01:07:42;;;;;;;4.28;1.70;;;;;;;18.23;69.63;100654.78;687883;28;1052;-44
2022/07/29 01:08:03;;;;;;;5.53;1.83;;;;;;;18.25;69.11;100660.00;687992;28;1405;-43
2022/07/29 01:08:24;;;;;;;4.88;1.95;;;;;;;18.25;69.01;100655.59;688421;28;1396;-44
2022/07/29 01:08:48;;;;;;;4.00;1.70;;;;;;;18.25;70.00;100655.59;689059;28;1384;-43
2022/07/29 01:09:09;;;;;;;3.38;1.70;;;;;;;18.23;70.56;100651.28;688987;28;1143;-43
2022/07/29 01:09:33;;;;;;;4.30;2.10;;;;;;;18.22;71.21;100655.72;688189;28;1138;-43
2022/07/29 01:09:55;;;;;;;4.38;1.90;;;;;;;18.21;71.37;100654.84;687633;28;1025;-43
2022/07/29 01:10:16;;;;;;;4.07;1.83;;;;;;;18.21;70.78;100659.28;688016;28;4367;-44
2022/07/29 01:10:38;;;;;;;4.55;1.80;;;;;;;18.25;69.99;100652.06;688602;28;1226;-43
2022/07/29 01:11:01;;;;;;;7.55;2.03;;;;;;;18.25;69.57;100655.59;689595;28;1285;-43
2022/07/29 01:11:21;;;;;;;5.45;2.15;;;;;;;18.24;70.30;100651.22;688366;28;1139;-44
2022/07/29 01:11:44;;;;;;;4.63;1.70;;;;;;;18.23;71.47;100656.56;687733;28;1430;-46
2022/07/29 01:12:05;;;;;;;4.88;1.77;;;;;;;18.20;70.48;100654.91;685134;28;1410;-43
2022/07/29 01:12:28;;;;;;;4.03;1.70;;;;;;;18.20;69.82;100652.25;685685;28;1358;-45
2022/07/29 01:12:51;;;;;;;6.50;1.85;;;;;;;18.16;70.63;100653.28;683514;28;1350;-43
2022/07/29 01:13:12;;;;;;;6.25;1.80;;;;;;;18.16;70.19;100653.28;681654;28;4256;-43
2022/07/29 01:13:33;;;;;;;4.90;2.08;;;;;;;18.15;69.70;100654.19;684870;28;1386;-43
2022/07/29 01:13:53;;;;;;;4.10;1.90;;;;;;;18.14;70.61;100644.56;686129;28;1211;-43
2022/07/29 01:14:15;;;;;;;5.72;1.90;;;;;;;18.14;71.16;100649.84;687977;28;1064;-43
2022/07/29 01:14:37;;;;;;;6.15;1.73;;;;;;;18.11;70.98;100648.19;687829;28;2302;-44
2022/07/29 01:14:58;;;;;;;5.13;1.65;;;;;;;18.10;70.47;100648.22;687626;28;1264;-43
2022/07/29 01:15:19;;;;;;;3.42;1.73;;;;;;;18.09;70.45;100649.16;688554;28;1094;-43
2022/07/29 01:15:45;;;;;;;5.20;1.70;;;;;;;18.07;70.05;100646.56;687092;28;1376;-46
2022/07/29 01:16:24;;;;;;;5.10;1.75;;;;;;;18.04;69.34;100646.66;684817;28;4349;-43
2022/07/29 01:17:02;;;;;;;3.22;1.70;;;;;;;18.02;70.23;100644.06;686072;28;1423;-43
2022/07/29 01:18:00;;;;;;;3.60;1.70;;;;;;;18.02;70.49;100644.06;686070;28;1287;-44
2022/07/29 01:18:30;;;;;;;5.05;1.90;;;;;;;18.00;70.74;100643.28;687540;28;1236;-44
2022/07/29 01:18:56;;;;;;;4.25;1.80;;;;;;;17.99;70.91;100640.69;689175;28;1233;-43
2022/07/29 01:19:34;;;;;;;4.75;1.85;;;;;;;17.98;70.78;100637.16;686875;28;4446;-43
2022/07/29 01:20:16;;;;;;;4.43;1.77;;;;;;;17.98;70.63;100637.16;687476;28;2104;-43
2022/07/29 01:20:51;;;;;;;5.05;1.90;;;;;;;17.97;70.44;100635.44;688226;28;1906;-43
2022/07/29 01:21:17;;;;;;;5.32;2.00;;;;;;;17.97;69.94;100639.84;687288;28;1099;-44
2022/07/29 01:21:58;;;;;;;4.32;1.75;;;;;;;17.97;70.21;100640.75;686791;28;1386;-44
2022/07/29 01:22:25;;;;;;;4.60;1.80;;;;;;;17.97;71.10;100634.56;688210;28;4754;-43
2022/07/29 01:23:08;;;;;;;4.45;1.70;;;;;;;17.97;70.31;100635.44;688148;28;1098;-43
2022/07/29 01:24:06;;;;;;;5.53;1.80;;;;;;;17.97;70.31;100646.03;688159;28;1188;-43
2022/07/29 01:25:11;;;;;;;5.43;1.70;;;;;;;17.96;70.07;100636.38;689028;28;1508;-43
2022/07/29 01:25:40;;;;;;;5.40;1.90;;;;;;;17.96;70.22;100639.00;688786;28;4734;-43
2022/07/29 01:26:33;;;;;;;3.38;1.70;;;;;;;17.96;69.99;100639.00;690244;28;1255;-43
2022/07/29 01:27:04;;;;;;;6.70;2.13;;;;;;;17.97;73.96;100647.78;691907;28;1149;-44
2022/07/29 01:28:02;;;;;;;4.97;1.90;;;;;;;17.94;72.12;100642.63;687990;28;1512;-44
2022/07/29 01:28:48;;;;;;;4.65;1.80;;;;;;;17.91;71.37;100635.66;684485;28;5271;-43
2022/07/29 01:29:24;;;;;;;4.28;1.77;;;;;;;17.89;71.39;100637.47;685968;28;1121;-45
2022/07/29 01:29:53;;;;;;;4.15;1.90;;;;;;;17.87;71.58;100636.66;687257;28;1488;-43
2022/07/29 01:30:14;;;;;;;3.70;1.70;;;;;;;17.87;71.17;100640.19;684592;28;1258;-43
2022/07/29 01:30:38;;;;;;;3.60;1.65;;;;;;;17.87;71.21;100631.34;685068;28;1144;-43
2022/07/29 01:31:02;;;;;;;4.35;1.88;;;;;;;17.85;70.90;100636.72;686682;28;4266;-43
2022/07/29 01:31:31;;;;;;;4.95;1.80;;;;;;;17.86;71.09;100637.56;682186;28;1485;-44
2022/07/29 01:32:01;;;;;;;5.65;1.90;;;;;;;17.85;73.85;100638.50;683404;28;1267;-43
2022/07/29 01:32:28;;;;;;;4.63;1.67;;;;;;;17.86;72.40;100630.50;679118;28;1329;-43
2022/07/29 01:32:54;;;;;;;4.65;1.67;;;;;;;17.87;72.51;100632.25;681396;28;1180;-43
2022/07/29 01:34:02;;;;;;;5.30;1.90;;;;;;;17.84;73.11;100629.69;686512;28;4499;-42
2022/07/29 01:34:48;;;;;;;3.83;1.80;;;;;;;17.83;73.99;100627.09;688542;28;1358;-43
2022/07/29 01:35:17;;;;;;;4.03;1.70;;;;;;;17.82;72.87;100630.66;685984;28;1413;-44
2022/07/29 01:35:41;;;;;;;3.83;1.70;;;;;;;17.83;73.38;100632.38;684757;28;1283;-44
2022/07/29 01:36:10;;;;;;;4.28;1.80;;;;;;;17.81;73.10;100631.59;686148;28;1652;-45
2022/07/29 01:36:39;;;;;;;4.00;1.75;;;;;;;17.81;72.65;100626.31;686791;28;1418;-44
2022/07/29 01:37:28;;;;;;;3.83;1.70;;;;;;;17.81;72.86;100631.59;685662;28;4277;-43
2022/07/29 01:37:57;;;;;;;4.35;1.90;;;;;;;17.80;74.41;100630.72;682566;28;1280;-45
2022/07/29 01:38:24;;;;;;;3.75;1.65;;;;;;;17.78;73.46;100634.34;684142;28;1060;-45
2022/07/29 01:38:54;;;;;;;4.63;1.80;;;;;;;17.76;73.16;100631.72;686563;28;4991;-43
2022/07/29 01:39:20;;;;;;;3.13;1.73;;;;;;;17.77;73.75;100629.97;685909;28;1091;-44
2022/07/29 01:39:41;;;;;;;3.78;1.73;;;;;;;17.77;73.91;100635.25;689486;28;1095;-44
2022/07/29 01:40:04;;;;;;;4.25;1.90;;;;;;;17.77;73.63;100635.25;689339;28;4264;-44
2022/07/29 01:40:34;;;;;;;4.35;1.90;;;;;;;17.76;73.58;100637.03;691015;28;1910;-44
2022/07/29 01:41:14;;;;;;;5.13;1.80;;;;;;;17.76;72.84;100638.81;688053;28;2179;-44
2022/07/29 01:41:38;;;;;;;3.78;1.90;;;;;;;17.76;73.01;100626.44;688878;28;1495;-44
2022/07/29 01:42:06;;;;;;;4.20;2.00;;;;;;;17.75;73.26;100623.84;688835;28;1147;-43
2022/07/29 01:42:44;;;;;;;4.75;1.80;;;;;;;17.71;73.02;100633.69;688703;28;1069;-44
2022/07/29 01:43:14;;;;;;;4.32;1.90;;;;;;;17.70;73.06;100632.81;690634;28;4493;-44
2022/07/29 01:43:52;;;;;;;7.30;1.95;;;;;;;17.64;73.78;100632.16;689150;28;1206;-44
2022/07/29 01:44:20;;;;;;;5.75;2.00;;;;;;;17.60;73.71;100634.06;689771;28;1048;-43
2022/07/29 01:45:01;;;;;;;4.20;1.70;;;;;;;17.68;72.99;100629.38;688399;28;1213;-43
2022/07/29 01:45:29;;;;;;;5.90;1.80;;;;;;;17.69;73.12;100627.59;692011;28;1223;-43
2022/07/29 01:45:55;;;;;;;5.07;1.70;;;;;;;17.66;72.96;100625.91;691253;28;1075;-43
2022/07/29 01:46:21;;;;;;;4.72;1.90;;;;;;;17.64;75.78;100619.81;692114;28;4418;-43
2022/07/29 01:46:51;;;;;;;5.32;2.08;;;;;;;17.61;74.25;100621.69;690933;28;1238;-43
2022/07/29 01:47:17;;;;;;;3.92;1.80;;;;;;;17.62;74.63;100623.44;688460;28;1215;-44
2022/07/29 01:47:46;;;;;;;3.60;1.80;;;;;;;17.60;75.40;100620.84;689003;28;1176;-43
2022/07/29 01:48:16;;;;;;;4.00;1.70;;;;;;;17.58;73.91;100614.72;688698;28;977;-44
2022/07/29 01:48:45;;;;;;;5.20;1.80;;;;;;;17.60;74.57;100626.13;687708;28;996;-43
2022/07/29 01:49:11;;;;;;;5.45;1.80;;;;;;;17.60;74.91;100610.28;689835;28;4551;-47
2022/07/29 01:49:35;;;;;;;5.45;1.90;;;;;;;17.60;75.78;100620.84;690907;28;1131;-44
2022/07/29 01:49:59;;;;;;;4.35;2.00;;;;;;;17.59;76.84;100615.63;690764;28;1226;-42
2022/07/29 01:50:26;;;;;;;5.05;1.90;;;;;;;17.57;76.96;100618.31;688528;28;1090;-43
2022/07/29 01:50:55;;;;;;;4.78;1.73;;;;;;;17.56;77.86;100613.94;688567;28;1160;-44
2022/07/29 01:51:31;;;;;;;6.30;2.40;;;;;;;17.57;75.18;100620.06;688077;28;1088;-43
2022/07/29 01:51:58;;;;;;;4.80;1.60;;;;;;;17.56;75.44;100616.59;689458;28;1203;-45
2022/07/29 01:52:25;;;;;;;4.50;1.80;;;;;;;17.56;75.64;100613.94;687623;28;4767;-44
2022/07/29 01:53:05;;;;;;;3.60;1.90;;;;;;;17.51;75.02;100613.22;689037;28;1076;-44
2022/07/29 01:53:38;;;;;;;3.10;1.70;;;;;;;17.46;74.68;100615.16;689074;28;1600;-45
2022/07/29 01:54:08;;;;;;;3.30;1.70;;;;;;;17.44;74.70;100617.00;690064;28;1158;-43
2022/07/29 01:54:28;;;;;;;4.45;1.92;;;;;;;17.44;74.69;100615.22;688997;28;1114;-44
2022/07/29 01:54:55;;;;;;;3.83;1.80;;;;;;;17.47;75.24;100616.88;688921;28;1151;-45
2022/07/29 01:55:19;;;;;;;4.22;1.65;;;;;;;17.48;74.92;100615.97;690611;28;4393;-43